Other Surface Observations
Issued by NWS Great Falls, MT

Home | Current Version | Previous Version | Text Only | Print | Product List | Glossary On
Versions: 1 2 3 4 5 6 7 8 9 10 11 12 13 14 15 16 17 18 19 20 21 22 23 24 25 26 27 28 29 30 31 32 33 34 35 36 37 38 39 40 41 42 43 44 45 46 47 48 49 50
934
SXUS55 KTFX 292244
OSOTFX
AREA AWOS OBSERVATIONS
NATIONAL WEATHER SERVICE GREAT FALLS MT
0444 PM MDT THU SEP 29 2016

METAR KPWD 292245Z AUTO 12015G20KT 10SM 25/08 A3010 RMK PLENTYWOOD
METAR KPO1 292245Z AUTO 11011KT 10SM 27/09 A3005 RMK POPLAR
METAR K1S3 292245Z AUTO 03003KT 10SM 26/11 A3002 RMK FORSYTH
METAR KS71 292245Z AUTO 08004KT 10SM 24/13 A3000 RMK CHINOOK
METAR K38S 292245Z AUTO 26008KT 10SM 26/01 A3007 RMK DEER LODGE
METAR K3U3 292245Z AUTO 35006KT 10SM 26/01 A3005 RMK ANACONDA
METAR K6S5 292245Z AUTO 29004KT 10SM 24/05 A2999 RMK HAMILTON
METAR KS59 292245Z AUTO 00000KT 10SM 23/09 A2995 RMK LIBBY
METAR K88M 292245Z AUTO 20003KT 10SM 19/07 A2999 RMK EUREKA



USA.gov is the U.S. government's official web portal to all federal, state and local government web resources and services.